sensor_id;sensor_type;location;lat;lon;timestamp;P1;durP1;ratioP1;P2;durP2;ratioP2
26656;SDS011;14279;50.010;8.260;2022-12-18T00:00:28;52.73;;;22.20;;
26656;SDS011;14279;50.010;8.260;2022-12-18T00:02:53;46.27;;;21.97;;
26656;SDS011;14279;50.010;8.260;2022-12-18T00:05:18;44.67;;;20.27;;
26656;SDS011;14279;50.010;8.260;2022-12-18T00:07:43;51.23;;;21.90;;
26656;SDS011;14279;50.010;8.260;2022-12-18T00:10:09;46.20;;;22.03;;
26656;SDS011;14279;50.010;8.260;2022-12-18T00:12:34;47.97;;;21.23;;
26656;SDS011;14279;50.010;8.260;2022-12-18T00:14:59;41.87;;;20.43;;
26656;SDS011;14279;50.010;8.260;2022-12-18T00:17:24;49.70;;;21.27;;
26656;SDS011;14279;50.010;8.260;2022-12-18T00:19:50;47.60;;;20.53;;
26656;SDS011;14279;50.010;8.260;2022-12-18T00:22:15;44.20;;;21.50;;
26656;SDS011;14279;50.010;8.260;2022-12-18T00:24:43;48.97;;;21.60;;
26656;SDS011;14279;50.010;8.260;2022-12-18T00:27:08;48.27;;;22.63;;
26656;SDS011;14279;50.010;8.260;2022-12-18T00:29:33;43.17;;;21.73;;
26656;SDS011;14279;50.010;8.260;2022-12-18T00:31:59;41.60;;;20.33;;
26656;SDS011;14279;50.010;8.260;2022-12-18T00:34:24;50.30;;;21.40;;
26656;SDS011;14279;50.010;8.260;2022-12-18T00:36:49;50.90;;;21.47;;
26656;SDS011;14279;50.010;8.260;2022-12-18T00:39:15;55.10;;;24.10;;
26656;SDS011;14279;50.010;8.260;2022-12-18T00:41:40;46.53;;;23.03;;
26656;SDS011;14279;50.010;8.260;2022-12-18T00:44:24;45.70;;;19.83;;
26656;SDS011;14279;50.010;8.260;2022-12-18T00:46:49;44.03;;;21.00;;
26656;SDS011;14279;50.010;8.260;2022-12-18T00:49:15;43.17;;;21.30;;
26656;SDS011;14279;50.010;8.260;2022-12-18T00:51:42;47.93;;;21.23;;
26656;SDS011;14279;50.010;8.260;2022-12-18T00:54:07;43.60;;;20.20;;
26656;SDS011;14279;50.010;8.260;2022-12-18T00:56:34;45.70;;;21.10;;
26656;SDS011;14279;50.010;8.260;2022-12-18T01:02:10;42.40;;;20.10;;
26656;SDS011;14279;50.010;8.260;2022-12-18T01:04:41;44.67;;;20.67;;
26656;SDS011;14279;50.010;8.260;2022-12-18T01:07:06;46.50;;;21.10;;
26656;SDS011;14279;50.010;8.260;2022-12-18T01:09:31;44.67;;;22.40;;
26656;SDS011;14279;50.010;8.260;2022-12-18T01:11:57;45.57;;;21.80;;
26656;SDS011;14279;50.010;8.260;2022-12-18T01:14:22;46.70;;;21.63;;
26656;SDS011;14279;50.010;8.260;2022-12-18T01:16:47;46.63;;;20.90;;
26656;SDS011;14279;50.010;8.260;2022-12-18T01:19:12;47.40;;;20.60;;
26656;SDS011;14279;50.010;8.260;2022-12-18T01:21:38;53.67;;;23.43;;
26656;SDS011;14279;50.010;8.260;2022-12-18T01:24:03;53.63;;;22.70;;
26656;SDS011;14279;50.010;8.260;2022-12-18T01:26:29;45.87;;;21.70;;
26656;SDS011;14279;50.010;8.260;2022-12-18T01:28:55;45.30;;;20.73;;
26656;SDS011;14279;50.010;8.260;2022-12-18T01:31:22;50.33;;;21.03;;
26656;SDS011;14279;50.010;8.260;2022-12-18T01:33:50;51.53;;;20.80;;
26656;SDS011;14279;50.010;8.260;2022-12-18T01:36:26;43.97;;;20.50;;
26656;SDS011;14279;50.010;8.260;2022-12-18T01:38:56;46.20;;;21.10;;
26656;SDS011;14279;50.010;8.260;2022-12-18T01:41:24;46.70;;;21.93;;
26656;SDS011;14279;50.010;8.260;2022-12-18T01:43:57;46.73;;;20.97;;
26656;SDS011;14279;50.010;8.260;2022-12-18T01:46:24;45.17;;;21.10;;
26656;SDS011;14279;50.010;8.260;2022-12-18T01:48:52;49.50;;;21.20;;
26656;SDS011;14279;50.010;8.260;2022-12-18T01:51:20;46.23;;;21.27;;
26656;SDS011;14279;50.010;8.260;2022-12-18T01:53:45;49.27;;;19.70;;
26656;SDS011;14279;50.010;8.260;2022-12-18T01:56:12;47.73;;;21.70;;
26656;SDS011;14279;50.010;8.260;2022-12-18T01:58:54;48.13;;;20.57;;
26656;SDS011;14279;50.010;8.260;2022-12-18T02:01:27;43.53;;;20.63;;
26656;SDS011;14279;50.010;8.260;2022-12-18T02:03:55;37.53;;;19.53;;
26656;SDS011;14279;50.010;8.260;2022-12-18T02:06:32;45.70;;;20.63;;
26656;SDS011;14279;50.010;8.260;2022-12-18T02:09:11;46.63;;;20.87;;
26656;SDS011;14279;50.010;8.260;2022-12-18T02:17:08;46.90;;;21.50;;
26656;SDS011;14279;50.010;8.260;2022-12-18T02:28:06;46.60;;;20.73;;
26656;SDS011;14279;50.010;8.260;2022-12-18T02:30:34;41.47;;;21.20;;
26656;SDS011;14279;50.010;8.260;2022-12-18T02:33:04;42.97;;;20.13;;
26656;SDS011;14279;50.010;8.260;2022-12-18T02:35:31;45.13;;;20.90;;
26656;SDS011;14279;50.010;8.260;2022-12-18T02:37:59;35.00;;;18.70;;
26656;SDS011;14279;50.010;8.260;2022-12-18T02:40:26;48.40;;;22.63;;
26656;SDS011;14279;50.010;8.260;2022-12-18T02:42:53;44.00;;;20.27;;
26656;SDS011;14279;50.010;8.260;2022-12-18T02:45:18;41.57;;;18.73;;
26656;SDS011;14279;50.010;8.260;2022-12-18T02:47:44;46.90;;;20.17;;
26656;SDS011;14279;50.010;8.260;2022-12-18T02:58:41;41.87;;;19.57;;
26656;SDS011;14279;50.010;8.260;2022-12-18T03:01:21;46.57;;;19.90;;
26656;SDS011;14279;50.010;8.260;2022-12-18T03:04:01;46.83;;;21.07;;
26656;SDS011;14279;50.010;8.260;2022-12-18T03:06:46;36.43;;;19.43;;
26656;SDS011;14279;50.010;8.260;2022-12-18T03:09:16;47.50;;;21.10;;
26656;SDS011;14279;50.010;8.260;2022-12-18T03:11:45;41.87;;;20.27;;
26656;SDS011;14279;50.010;8.260;2022-12-18T03:14:33;42.67;;;19.97;;
26656;SDS011;14279;50.010;8.260;2022-12-18T03:17:02;42.20;;;21.00;;
26656;SDS011;14279;50.010;8.260;2022-12-18T03:19:32;45.23;;;20.40;;
26656;SDS011;14279;50.010;8.260;2022-12-18T03:22:00;46.13;;;21.37;;
26656;SDS011;14279;50.010;8.260;2022-12-18T03:24:28;41.23;;;21.07;;
26656;SDS011;14279;50.010;8.260;2022-12-18T03:26:57;37.07;;;18.80;;
26656;SDS011;14279;50.010;8.260;2022-12-18T03:29:29;46.57;;;22.60;;
26656;SDS011;14279;50.010;8.260;2022-12-18T03:32:15;43.53;;;19.80;;
26656;SDS011;14279;50.010;8.260;2022-12-18T03:34:45;43.77;;;20.33;;
26656;SDS011;14279;50.010;8.260;2022-12-18T03:37:15;50.30;;;22.10;;
26656;SDS011;14279;50.010;8.260;2022-12-18T03:39:40;40.47;;;20.60;;
26656;SDS011;14279;50.010;8.260;2022-12-18T03:47:06;51.50;;;20.87;;
26656;SDS011;14279;50.010;8.260;2022-12-18T03:49:39;43.60;;;19.90;;
26656;SDS011;14279;50.010;8.260;2022-12-18T03:52:29;41.97;;;21.03;;
26656;SDS011;14279;50.010;8.260;2022-12-18T03:55:00;40.70;;;19.13;;
26656;SDS011;14279;50.010;8.260;2022-12-18T03:57:28;43.90;;;21.17;;
26656;SDS011;14279;50.010;8.260;2022-12-18T03:59:56;46.13;;;20.93;;
26656;SDS011;14279;50.010;8.260;2022-12-18T04:02:25;38.57;;;19.80;;
26656;SDS011;14279;50.010;8.260;2022-12-18T04:04:54;43.23;;;20.57;;
26656;SDS011;14279;50.010;8.260;2022-12-18T04:07:23;45.17;;;21.47;;
26656;SDS011;14279;50.010;8.260;2022-12-18T04:09:49;42.30;;;20.13;;
26656;SDS011;14279;50.010;8.260;2022-12-18T04:12:18;43.30;;;21.20;;
26656;SDS011;14279;50.010;8.260;2022-12-18T04:14:43;41.13;;;20.70;;
26656;SDS011;14279;50.010;8.260;2022-12-18T04:17:09;43.27;;;21.10;;
26656;SDS011;14279;50.010;8.260;2022-12-18T04:19:35;41.10;;;20.57;;
26656;SDS011;14279;50.010;8.260;2022-12-18T04:22:00;43.77;;;19.40;;
26656;SDS011;14279;50.010;8.260;2022-12-18T04:24:25;49.53;;;21.00;;
26656;SDS011;14279;50.010;8.260;2022-12-18T04:26:50;44.80;;;21.10;;
26656;SDS011;14279;50.010;8.260;2022-12-18T04:29:16;42.83;;;20.50;;
26656;SDS011;14279;50.010;8.260;2022-12-18T04:31:41;46.47;;;19.20;;
26656;SDS011;14279;50.010;8.260;2022-12-18T04:34:06;41.43;;;19.63;;
26656;SDS011;14279;50.010;8.260;2022-12-18T04:36:31;41.10;;;19.33;;
26656;SDS011;14279;50.010;8.260;2022-12-18T04:38:57;49.53;;;21.50;;
26656;SDS011;14279;50.010;8.260;2022-12-18T04:41:22;41.07;;;20.20;;
26656;SDS011;14279;50.010;8.260;2022-12-18T04:43:47;50.30;;;21.77;;
26656;SDS011;14279;50.010;8.260;2022-12-18T04:46:12;38.70;;;19.63;;
26656;SDS011;14279;50.010;8.260;2022-12-18T04:48:38;51.17;;;21.13;;
26656;SDS011;14279;50.010;8.260;2022-12-18T04:51:04;42.97;;;18.80;;
26656;SDS011;14279;50.010;8.260;2022-12-18T04:53:30;48.33;;;19.20;;
26656;SDS011;14279;50.010;8.260;2022-12-18T04:56:30;43.27;;;19.43;;
26656;SDS011;14279;50.010;8.260;2022-12-18T04:58:47;43.07;;;19.43;;
26656;SDS011;14279;50.010;8.260;2022-12-18T05:01:13;43.23;;;20.13;;
26656;SDS011;14279;50.010;8.260;2022-12-18T05:03:40;50.23;;;20.63;;
26656;SDS011;14279;50.010;8.260;2022-12-18T05:06:05;40.20;;;19.03;;
26656;SDS011;14279;50.010;8.260;2022-12-18T05:08:32;44.77;;;19.20;;
26656;SDS011;14279;50.010;8.260;2022-12-18T05:10:58;42.33;;;19.87;;
26656;SDS011;14279;50.010;8.260;2022-12-18T05:13:28;37.80;;;18.77;;
26656;SDS011;14279;50.010;8.260;2022-12-18T05:15:54;53.33;;;20.80;;
26656;SDS011;14279;50.010;8.260;2022-12-18T05:18:19;39.17;;;18.70;;
26656;SDS011;14279;50.010;8.260;2022-12-18T05:20:45;42.70;;;18.90;;
26656;SDS011;14279;50.010;8.260;2022-12-18T05:23:10;37.60;;;18.37;;
26656;SDS011;14279;50.010;8.260;2022-12-18T05:25:35;41.57;;;18.77;;
26656;SDS011;14279;50.010;8.260;2022-12-18T05:28:00;38.83;;;19.93;;
26656;SDS011;14279;50.010;8.260;2022-12-18T05:30:26;40.30;;;19.50;;
26656;SDS011;14279;50.010;8.260;2022-12-18T05:32:52;44.03;;;19.83;;
26656;SDS011;14279;50.010;8.260;2022-12-18T05:35:18;40.47;;;21.20;;
26656;SDS011;14279;50.010;8.260;2022-12-18T05:37:43;43.27;;;20.50;;
26656;SDS011;14279;50.010;8.260;2022-12-18T05:40:09;39.17;;;18.00;;
26656;SDS011;14279;50.010;8.260;2022-12-18T05:42:34;37.03;;;20.10;;
26656;SDS011;14279;50.010;8.260;2022-12-18T05:45:00;48.90;;;21.30;;
26656;SDS011;14279;50.010;8.260;2022-12-18T05:47:26;39.73;;;19.73;;
26656;SDS011;14279;50.010;8.260;2022-12-18T05:49:52;41.50;;;19.37;;
26656;SDS011;14279;50.010;8.260;2022-12-18T05:52:17;35.57;;;18.00;;
26656;SDS011;14279;50.010;8.260;2022-12-18T05:54:42;46.80;;;20.13;;
26656;SDS011;14279;50.010;8.260;2022-12-18T05:57:07;41.17;;;18.77;;
26656;SDS011;14279;50.010;8.260;2022-12-18T05:59:33;40.77;;;19.30;;
26656;SDS011;14279;50.010;8.260;2022-12-18T06:01:58;39.63;;;18.80;;
26656;SDS011;14279;50.010;8.260;2022-12-18T06:04:23;37.87;;;19.33;;
26656;SDS011;14279;50.010;8.260;2022-12-18T06:06:48;41.83;;;19.23;;
26656;SDS011;14279;50.010;8.260;2022-12-18T06:09:14;47.87;;;19.60;;
26656;SDS011;14279;50.010;8.260;2022-12-18T06:11:39;41.90;;;20.47;;
26656;SDS011;14279;50.010;8.260;2022-12-18T06:14:05;40.70;;;20.10;;
26656;SDS011;14279;50.010;8.260;2022-12-18T06:16:31;46.33;;;20.20;;
26656;SDS011;14279;50.010;8.260;2022-12-18T06:18:57;36.63;;;19.80;;
26656;SDS011;14279;50.010;8.260;2022-12-18T06:21:24;42.57;;;20.10;;
26656;SDS011;14279;50.010;8.260;2022-12-18T06:23:49;39.73;;;19.90;;
26656;SDS011;14279;50.010;8.260;2022-12-18T06:26:14;41.33;;;17.60;;
26656;SDS011;14279;50.010;8.260;2022-12-18T06:28:40;42.47;;;20.53;;
26656;SDS011;14279;50.010;8.260;2022-12-18T06:31:06;40.33;;;19.83;;
26656;SDS011;14279;50.010;8.260;2022-12-18T06:33:32;39.87;;;19.10;;
26656;SDS011;14279;50.010;8.260;2022-12-18T06:36:02;39.03;;;18.20;;
26656;SDS011;14279;50.010;8.260;2022-12-18T06:38:31;37.70;;;19.83;;
26656;SDS011;14279;50.010;8.260;2022-12-18T06:40:57;38.43;;;17.70;;
26656;SDS011;14279;50.010;8.260;2022-12-18T06:43:22;37.40;;;18.30;;
26656;SDS011;14279;50.010;8.260;2022-12-18T06:45:48;43.40;;;19.30;;
26656;SDS011;14279;50.010;8.260;2022-12-18T06:48:17;32.23;;;18.70;;
26656;SDS011;14279;50.010;8.260;2022-12-18T06:50:44;36.73;;;17.63;;
26656;SDS011;14279;50.010;8.260;2022-12-18T06:53:09;35.87;;;17.70;;
26656;SDS011;14279;50.010;8.260;2022-12-18T06:55:34;31.90;;;17.10;;
26656;SDS011;14279;50.010;8.260;2022-12-18T06:57:59;35.00;;;16.70;;
26656;SDS011;14279;50.010;8.260;2022-12-18T07:00:25;37.80;;;17.20;;
26656;SDS011;14279;50.010;8.260;2022-12-18T07:02:50;33.63;;;17.43;;
26656;SDS011;14279;50.010;8.260;2022-12-18T07:05:15;32.23;;;17.40;;
26656;SDS011;14279;50.010;8.260;2022-12-18T07:07:40;33.87;;;16.03;;
26656;SDS011;14279;50.010;8.260;2022-12-18T07:10:06;33.07;;;18.30;;
26656;SDS011;14279;50.010;8.260;2022-12-18T07:12:31;32.90;;;16.77;;
26656;SDS011;14279;50.010;8.260;2022-12-18T07:14:56;33.03;;;17.00;;
26656;SDS011;14279;50.010;8.260;2022-12-18T07:17:22;32.17;;;15.90;;
26656;SDS011;14279;50.010;8.260;2022-12-18T07:19:47;35.97;;;16.13;;
26656;SDS011;14279;50.010;8.260;2022-12-18T07:22:12;32.20;;;16.47;;
26656;SDS011;14279;50.010;8.260;2022-12-18T07:24:38;29.33;;;15.97;;
26656;SDS011;14279;50.010;8.260;2022-12-18T07:27:03;34.73;;;15.83;;
26656;SDS011;14279;50.010;8.260;2022-12-18T07:29:28;29.63;;;15.80;;
26656;SDS011;14279;50.010;8.260;2022-12-18T07:31:54;37.53;;;18.20;;
26656;SDS011;14279;50.010;8.260;2022-12-18T07:34:19;30.80;;;16.10;;
26656;SDS011;14279;50.010;8.260;2022-12-18T07:36:45;27.40;;;16.33;;
26656;SDS011;14279;50.010;8.260;2022-12-18T07:39:10;29.10;;;15.23;;
26656;SDS011;14279;50.010;8.260;2022-12-18T07:41:36;30.57;;;16.33;;
26656;SDS011;14279;50.010;8.260;2022-12-18T07:44:01;26.67;;;13.03;;
26656;SDS011;14279;50.010;8.260;2022-12-18T07:46:26;25.17;;;13.93;;
26656;SDS011;14279;50.010;8.260;2022-12-18T07:48:52;24.90;;;15.03;;
26656;SDS011;14279;50.010;8.260;2022-12-18T07:51:17;26.73;;;14.97;;
26656;SDS011;14279;50.010;8.260;2022-12-18T07:53:43;26.43;;;15.07;;
26656;SDS011;14279;50.010;8.260;2022-12-18T07:56:10;33.67;;;14.53;;
26656;SDS011;14279;50.010;8.260;2022-12-18T07:58:36;27.50;;;13.60;;
26656;SDS011;14279;50.010;8.260;2022-12-18T08:01:05;23.17;;;13.57;;
26656;SDS011;14279;50.010;8.260;2022-12-18T08:03:32;24.20;;;13.03;;
26656;SDS011;14279;50.010;8.260;2022-12-18T08:06:01;24.70;;;13.60;;
26656;SDS011;14279;50.010;8.260;2022-12-18T08:08:28;28.10;;;14.90;;
26656;SDS011;14279;50.010;8.260;2022-12-18T08:10:54;26.07;;;15.73;;
26656;SDS011;14279;50.010;8.260;2022-12-18T08:13:20;30.83;;;15.37;;
26656;SDS011;14279;50.010;8.260;2022-12-18T08:15:45;30.43;;;15.00;;
26656;SDS011;14279;50.010;8.260;2022-12-18T08:18:10;25.97;;;14.53;;
26656;SDS011;14279;50.010;8.260;2022-12-18T08:20:35;27.23;;;14.73;;
26656;SDS011;14279;50.010;8.260;2022-12-18T08:23:01;29.20;;;15.90;;
26656;SDS011;14279;50.010;8.260;2022-12-18T08:25:26;30.60;;;16.50;;
26656;SDS011;14279;50.010;8.260;2022-12-18T08:27:51;37.57;;;17.90;;
26656;SDS011;14279;50.010;8.260;2022-12-18T08:30:17;31.60;;;17.13;;
26656;SDS011;14279;50.010;8.260;2022-12-18T08:32:42;28.10;;;16.00;;
26656;SDS011;14279;50.010;8.260;2022-12-18T08:35:08;32.80;;;17.87;;
26656;SDS011;14279;50.010;8.260;2022-12-18T08:37:33;29.67;;;16.30;;
26656;SDS011;14279;50.010;8.260;2022-12-18T08:39:59;39.03;;;19.30;;
26656;SDS011;14279;50.010;8.260;2022-12-18T08:42:24;36.83;;;18.40;;
26656;SDS011;14279;50.010;8.260;2022-12-18T08:45:13;35.53;;;18.73;;
26656;SDS011;14279;50.010;8.260;2022-12-18T08:47:40;35.40;;;18.93;;
26656;SDS011;14279;50.010;8.260;2022-12-18T08:50:05;39.13;;;18.80;;
26656;SDS011;14279;50.010;8.260;2022-12-18T08:52:31;34.50;;;19.00;;
26656;SDS011;14279;50.010;8.260;2022-12-18T08:54:57;33.60;;;18.50;;
26656;SDS011;14279;50.010;8.260;2022-12-18T08:57:22;35.60;;;17.43;;
26656;SDS011;14279;50.010;8.260;2022-12-18T08:59:48;31.93;;;19.60;;
26656;SDS011;14279;50.010;8.260;2022-12-18T09:02:13;37.53;;;20.50;;
26656;SDS011;14279;50.010;8.260;2022-12-18T09:04:41;33.03;;;18.33;;
26656;SDS011;14279;50.010;8.260;2022-12-18T09:07:17;33.03;;;18.90;;
26656;SDS011;14279;50.010;8.260;2022-12-18T09:09:42;36.77;;;19.33;;
26656;SDS011;14279;50.010;8.260;2022-12-18T09:12:08;41.17;;;20.33;;
26656;SDS011;14279;50.010;8.260;2022-12-18T09:14:40;35.47;;;18.50;;
26656;SDS011;14279;50.010;8.260;2022-12-18T09:17:05;32.00;;;18.80;;
26656;SDS011;14279;50.010;8.260;2022-12-18T09:19:30;43.13;;;19.17;;
26656;SDS011;14279;50.010;8.260;2022-12-18T09:21:56;39.70;;;19.20;;
26656;SDS011;14279;50.010;8.260;2022-12-18T09:24:21;33.47;;;19.40;;
26656;SDS011;14279;50.010;8.260;2022-12-18T09:26:52;34.10;;;18.10;;
26656;SDS011;14279;50.010;8.260;2022-12-18T09:29:20;37.77;;;19.17;;
26656;SDS011;14279;50.010;8.260;2022-12-18T09:31:51;33.73;;;18.47;;
26656;SDS011;14279;50.010;8.260;2022-12-18T09:34:22;41.10;;;19.50;;
26656;SDS011;14279;50.010;8.260;2022-12-18T09:36:48;34.70;;;18.87;;
26656;SDS011;14279;50.010;8.260;2022-12-18T09:39:13;34.70;;;20.07;;
26656;SDS011;14279;50.010;8.260;2022-12-18T09:41:51;33.00;;;20.53;;
26656;SDS011;14279;50.010;8.260;2022-12-18T09:44:35;33.50;;;18.40;;
26656;SDS011;14279;50.010;8.260;2022-12-18T09:47:27;37.40;;;19.33;;
26656;SDS011;14279;50.010;8.260;2022-12-18T09:49:59;41.47;;;19.70;;
26656;SDS011;14279;50.010;8.260;2022-12-18T09:52:30;34.13;;;19.97;;
26656;SDS011;14279;50.010;8.260;2022-12-18T09:57:50;38.13;;;18.63;;
26656;SDS011;14279;50.010;8.260;2022-12-18T10:00:20;41.03;;;18.80;;
26656;SDS011;14279;50.010;8.260;2022-12-18T10:02:47;35.70;;;19.73;;
26656;SDS011;14279;50.010;8.260;2022-12-18T10:05:20;38.60;;;19.00;;
26656;SDS011;14279;50.010;8.260;2022-12-18T10:08:22;33.40;;;19.30;;
26656;SDS011;14279;50.010;8.260;2022-12-18T10:11:01;34.40;;;18.70;;
26656;SDS011;14279;50.010;8.260;2022-12-18T10:14:03;38.90;;;19.30;;
26656;SDS011;14279;50.010;8.260;2022-12-18T10:16:35;37.10;;;20.30;;
26656;SDS011;14279;50.010;8.260;2022-12-18T10:27:25;38.47;;;19.77;;
26656;SDS011;14279;50.010;8.260;2022-12-18T10:30:01;37.57;;;21.00;;
26656;SDS011;14279;50.010;8.260;2022-12-18T10:32:41;38.87;;;21.40;;
26656;SDS011;14279;50.010;8.260;2022-12-18T10:35:07;37.57;;;20.47;;
26656;SDS011;14279;50.010;8.260;2022-12-18T10:37:59;41.07;;;20.50;;
26656;SDS011;14279;50.010;8.260;2022-12-18T10:40:47;37.77;;;21.60;;
26656;SDS011;14279;50.010;8.260;2022-12-18T10:43:29;39.70;;;22.30;;
26656;SDS011;14279;50.010;8.260;2022-12-18T10:48:27;40.20;;;21.27;;
26656;SDS011;14279;50.010;8.260;2022-12-18T10:50:53;44.00;;;22.17;;
26656;SDS011;14279;50.010;8.260;2022-12-18T10:53:23;46.20;;;21.47;;
26656;SDS011;14279;50.010;8.260;2022-12-18T11:01:11;37.10;;;21.17;;
26656;SDS011;14279;50.010;8.260;2022-12-18T11:03:42;38.80;;;21.70;;
26656;SDS011;14279;50.010;8.260;2022-12-18T11:06:13;40.03;;;21.07;;
26656;SDS011;14279;50.010;8.260;2022-12-18T11:12:04;44.77;;;21.23;;
26656;SDS011;14279;50.010;8.260;2022-12-18T11:17:19;38.07;;;22.57;;
26656;SDS011;14279;50.010;8.260;2022-12-18T11:20:02;40.17;;;22.90;;
26656;SDS011;14279;50.010;8.260;2022-12-18T11:22:57;44.03;;;22.50;;
26656;SDS011;14279;50.010;8.260;2022-12-18T11:25:25;42.50;;;22.37;;
26656;SDS011;14279;50.010;8.260;2022-12-18T11:32:50;37.60;;;22.23;;
26656;SDS011;14279;50.010;8.260;2022-12-18T11:35:23;46.23;;;22.60;;
26656;SDS011;14279;50.010;8.260;2022-12-18T11:37:58;51.20;;;22.10;;
26656;SDS011;14279;50.010;8.260;2022-12-18T11:40:35;42.20;;;22.70;;
26656;SDS011;14279;50.010;8.260;2022-12-18T11:43:04;41.47;;;22.17;;
26656;SDS011;14279;50.010;8.260;2022-12-18T11:45:37;42.07;;;21.07;;
26656;SDS011;14279;50.010;8.260;2022-12-18T11:50:54;43.47;;;23.50;;
26656;SDS011;14279;50.010;8.260;2022-12-18T11:53:21;44.67;;;23.93;;
26656;SDS011;14279;50.010;8.260;2022-12-18T11:58:56;39.27;;;21.43;;
26656;SDS011;14279;50.010;8.260;2022-12-18T12:04:38;42.07;;;22.43;;
26656;SDS011;14279;50.010;8.260;2022-12-18T12:07:27;38.70;;;22.10;;
26656;SDS011;14279;50.010;8.260;2022-12-18T12:10:01;41.57;;;22.17;;
26656;SDS011;14279;50.010;8.260;2022-12-18T12:15:25;41.10;;;22.97;;
26656;SDS011;14279;50.010;8.260;2022-12-18T12:18:21;39.83;;;22.97;;
26656;SDS011;14279;50.010;8.260;2022-12-18T12:24:07;47.03;;;23.50;;
26656;SDS011;14279;50.010;8.260;2022-12-18T12:34:00;50.17;;;25.13;;
26656;SDS011;14279;50.010;8.260;2022-12-18T12:39:13;51.80;;;23.67;;
26656;SDS011;14279;50.010;8.260;2022-12-18T12:41:43;42.60;;;23.67;;
26656;SDS011;14279;50.010;8.260;2022-12-18T12:44:31;46.10;;;24.20;;
26656;SDS011;14279;50.010;8.260;2022-12-18T12:47:07;45.63;;;23.60;;
26656;SDS011;14279;50.010;8.260;2022-12-18T12:49:40;52.33;;;24.80;;
26656;SDS011;14279;50.010;8.260;2022-12-18T12:54:55;45.40;;;23.33;;
26656;SDS011;14279;50.010;8.260;2022-12-18T12:57:41;45.03;;;25.07;;
26656;SDS011;14279;50.010;8.260;2022-12-18T13:00:14;50.27;;;24.90;;
26656;SDS011;14279;50.010;8.260;2022-12-18T13:08:09;46.00;;;24.17;;
26656;SDS011;14279;50.010;8.260;2022-12-18T13:10:37;50.00;;;24.10;;
26656;SDS011;14279;50.010;8.260;2022-12-18T13:13:10;54.83;;;24.90;;
26656;SDS011;14279;50.010;8.260;2022-12-18T13:20:36;42.33;;;23.37;;
26656;SDS011;14279;50.010;8.260;2022-12-18T13:31:57;48.57;;;23.83;;
26656;SDS011;14279;50.010;8.260;2022-12-18T13:34:21;49.63;;;24.50;;
26656;SDS011;14279;50.010;8.260;2022-12-18T13:36:49;47.70;;;25.43;;
26656;SDS011;14279;50.010;8.260;2022-12-18T13:41:46;51.67;;;24.20;;
26656;SDS011;14279;50.010;8.260;2022-12-18T13:44:30;52.67;;;24.83;;
26656;SDS011;14279;50.010;8.260;2022-12-18T13:46:58;55.00;;;23.20;;
26656;SDS011;14279;50.010;8.260;2022-12-18T13:49:38;52.80;;;25.00;;
26656;SDS011;14279;50.010;8.260;2022-12-18T13:52:17;47.10;;;24.20;;
26656;SDS011;14279;50.010;8.260;2022-12-18T13:54:47;47.97;;;24.73;;
26656;SDS011;14279;50.010;8.260;2022-12-18T13:57:29;56.87;;;24.67;;
26656;SDS011;14279;50.010;8.260;2022-12-18T13:59:57;50.50;;;23.97;;
26656;SDS011;14279;50.010;8.260;2022-12-18T14:02:27;49.57;;;24.90;;
26656;SDS011;14279;50.010;8.260;2022-12-18T14:04:59;50.80;;;24.23;;
26656;SDS011;14279;50.010;8.260;2022-12-18T14:07:26;54.67;;;25.37;;
26656;SDS011;14279;50.010;8.260;2022-12-18T14:09:54;53.27;;;24.53;;
26656;SDS011;14279;50.010;8.260;2022-12-18T14:15:23;47.63;;;22.47;;
26656;SDS011;14279;50.010;8.260;2022-12-18T14:18:00;44.70;;;23.53;;
26656;SDS011;14279;50.010;8.260;2022-12-18T14:20:28;50.40;;;21.87;;
26656;SDS011;14279;50.010;8.260;2022-12-18T14:22:56;48.37;;;23.37;;
26656;SDS011;14279;50.010;8.260;2022-12-18T14:25:23;53.47;;;25.47;;
26656;SDS011;14279;50.010;8.260;2022-12-18T14:30:32;51.60;;;23.50;;
26656;SDS011;14279;50.010;8.260;2022-12-18T14:35:30;54.80;;;26.10;;
26656;SDS011;14279;50.010;8.260;2022-12-18T14:40:41;58.87;;;25.13;;
26656;SDS011;14279;50.010;8.260;2022-12-18T14:43:08;56.77;;;24.60;;
26656;SDS011;14279;50.010;8.260;2022-12-18T14:45:36;55.73;;;24.20;;
26656;SDS011;14279;50.010;8.260;2022-12-18T14:48:06;52.47;;;24.90;;
26656;SDS011;14279;50.010;8.260;2022-12-18T14:50:33;56.70;;;25.17;;
26656;SDS011;14279;50.010;8.260;2022-12-18T14:52:59;57.37;;;25.33;;
26656;SDS011;14279;50.010;8.260;2022-12-18T14:55:24;50.60;;;25.17;;
26656;SDS011;14279;50.010;8.260;2022-12-18T14:57:51;54.00;;;24.93;;
26656;SDS011;14279;50.010;8.260;2022-12-18T15:00:20;57.80;;;25.17;;
26656;SDS011;14279;50.010;8.260;2022-12-18T15:02:47;60.10;;;26.43;;
26656;SDS011;14279;50.010;8.260;2022-12-18T15:05:18;53.30;;;25.83;;
26656;SDS011;14279;50.010;8.260;2022-12-18T15:07:49;53.73;;;25.70;;
26656;SDS011;14279;50.010;8.260;2022-12-18T15:10:20;48.70;;;23.10;;
26656;SDS011;14279;50.010;8.260;2022-12-18T15:18:09;56.77;;;24.77;;
26656;SDS011;14279;50.010;8.260;2022-12-18T15:20:45;53.00;;;25.73;;
26656;SDS011;14279;50.010;8.260;2022-12-18T15:25:41;62.77;;;27.07;;
26656;SDS011;14279;50.010;8.260;2022-12-18T15:28:15;55.43;;;23.40;;
26656;SDS011;14279;50.010;8.260;2022-12-18T15:33:35;57.57;;;25.00;;
26656;SDS011;14279;50.010;8.260;2022-12-18T15:36:03;61.27;;;25.70;;
26656;SDS011;14279;50.010;8.260;2022-12-18T15:38:30;55.47;;;25.93;;
26656;SDS011;14279;50.010;8.260;2022-12-18T15:40:56;61.53;;;25.13;;
26656;SDS011;14279;50.010;8.260;2022-12-18T15:43:22;52.90;;;23.83;;
26656;SDS011;14279;50.010;8.260;2022-12-18T15:48:33;55.50;;;25.73;;
26656;SDS011;14279;50.010;8.260;2022-12-18T15:51:00;56.67;;;25.50;;
26656;SDS011;14279;50.010;8.260;2022-12-18T15:53:28;52.27;;;25.50;;
26656;SDS011;14279;50.010;8.260;2022-12-18T15:55:56;48.70;;;23.70;;
26656;SDS011;14279;50.010;8.260;2022-12-18T15:58:41;54.83;;;26.27;;
26656;SDS011;14279;50.010;8.260;2022-12-18T16:01:07;48.90;;;23.60;;
26656;SDS011;14279;50.010;8.260;2022-12-18T16:03:34;47.77;;;25.60;;
26656;SDS011;14279;50.010;8.260;2022-12-18T16:05:59;50.63;;;25.43;;
26656;SDS011;14279;50.010;8.260;2022-12-18T16:08:27;53.80;;;23.97;;
26656;SDS011;14279;50.010;8.260;2022-12-18T16:10:54;50.70;;;25.07;;
26656;SDS011;14279;50.010;8.260;2022-12-18T16:13:19;53.60;;;24.20;;
26656;SDS011;14279;50.010;8.260;2022-12-18T16:15:45;47.20;;;23.10;;
26656;SDS011;14279;50.010;8.260;2022-12-18T16:18:14;43.87;;;21.57;;
26656;SDS011;14279;50.010;8.260;2022-12-18T16:20:42;44.57;;;23.63;;
26656;SDS011;14279;50.010;8.260;2022-12-18T16:23:11;47.07;;;23.10;;
26656;SDS011;14279;50.010;8.260;2022-12-18T16:25:40;52.33;;;24.67;;
26656;SDS011;14279;50.010;8.260;2022-12-18T16:28:08;52.27;;;23.90;;
26656;SDS011;14279;50.010;8.260;2022-12-18T16:30:35;53.03;;;24.80;;
26656;SDS011;14279;50.010;8.260;2022-12-18T16:33:01;53.20;;;24.90;;
26656;SDS011;14279;50.010;8.260;2022-12-18T16:35:26;47.80;;;23.90;;
26656;SDS011;14279;50.010;8.260;2022-12-18T16:37:52;53.83;;;24.53;;
26656;SDS011;14279;50.010;8.260;2022-12-18T16:40:17;55.90;;;24.70;;
26656;SDS011;14279;50.010;8.260;2022-12-18T16:42:44;55.47;;;24.03;;
26656;SDS011;14279;50.010;8.260;2022-12-18T16:45:12;50.27;;;22.03;;